KAEX

Alexandria International Airport

Alexandria, Louisiana, USA
METAR KAEX 161353Z 00000KT 6SM BR BKN110 01/00 A3027 RMK AO2 SLP255 T00060000
Observed Flight Rules
Dec-16 @ 13:53 UTC (59 minutes ago) Visual Flight Rules
Wind Visibility Clouds Conditions
Calm 6 miles
  • Broken at 11,000' AGL
  • Mist
Temperatures Readings
Current 1°C / 34°F
Dewpoint 0°C / 32°F
Humidity 93%
Altimeter 30.27" Hg
Pressure 1025.5 hPa
Elevation 27
METAR KAEX 161353Z 00000KT 6SM BR BKN110 01/00 A3027 RMK AO2 SLP255 T00060000
Observed Flight Rules
Dec-16 @ 13:53 UTC
(59 minutes ago)
VFR
Wind Visibility
Calm 6 miles
Clouds
  • Broken at 11,000' AGL
Conditions
  • Mist
Temperature Dewpoint
1°C / 34°F 0°C / 32°F
Humidity Altimeter Pressure
93% 30.27" Hg 1025.5 hPa